Time;durP1;ratioP1;P1;durP2;ratioP2;P2;SDS_P1;SDS_P2;PMS_P1;PMS_P2;Temp;Humidity;BMP_temperature;BMP_pressure;BME280_temperature;BME280_humidity;BME280_pressure;Samples;Min_cycle;Max_cycle;Signal;HPM_P1;HPM_P2
2022/07/17 00:01:57;;;;;;;6.50;5.80;;;;;;;17.83;74.09;98935.56;4122185;28;20655;-83
2022/07/17 00:04:00;;;;;;;6.37;5.77;;;;;;;17.82;75.19;98936.50;4123892;28;20660;-83
2022/07/17 00:06:03;;;;;;;6.53;5.80;;;;;;;17.82;76.57;98941.78;4123006;28;20673;-83
2022/07/17 00:08:08;;;;;;;11.20;6.10;;;;;;;17.76;73.69;98944.94;4122170;28;20649;-83
2022/07/17 00:10:11;;;;;;;7.77;5.90;;;;;;;17.73;75.73;98944.38;4106237;28;21073;-83
2022/07/17 00:12:14;;;;;;;6.83;6.23;;;;;;;17.71;76.03;98948.91;4108282;28;20682;-83
2022/07/17 00:14:18;;;;;;;6.60;6.00;;;;;;;17.65;75.50;98945.00;4123717;28;21118;-83
2022/07/17 00:16:21;;;;;;;6.50;5.90;;;;;;;17.59;75.37;98945.50;4125136;28;20678;-83
2022/07/17 00:18:24;;;;;;;7.33;6.00;;;;;;;17.51;75.92;98941.81;4126068;28;20676;-83
2022/07/17 00:20:28;;;;;;;6.73;6.13;;;;;;;17.47;76.32;98945.69;4112059;28;20662;-83
2022/07/17 00:22:31;;;;;;;6.00;5.40;;;;;;;17.43;74.90;98948.72;4124628;28;20666;-84
2022/07/17 00:24:35;;;;;;;6.90;6.00;;;;;;;17.38;76.12;98942.94;4108507;28;20658;-83
2022/07/17 00:26:39;;;;;;;6.70;6.10;;;;;;;17.32;75.81;98935.53;4108850;28;20662;-83
2022/07/17 00:28:42;;;;;;;7.83;7.07;;;;;;;17.28;75.58;98934.13;4124808;28;21312;-83
2022/07/17 00:30:45;;;;;;;7.30;6.60;;;;;;;17.25;76.14;98939.66;4122854;28;20662;-83
2022/07/17 00:32:48;;;;;;;7.17;6.50;;;;;;;17.19;76.59;98940.94;4110675;28;20692;-83
2022/07/17 00:34:51;;;;;;;7.63;6.80;;;;;;;17.20;77.71;98947.06;4120946;28;20665;-83
2022/07/17 00:36:54;;;;;;;7.40;6.63;;;;;;;17.18;76.41;98949.00;4124364;28;21093;-83
2022/07/17 00:38:57;;;;;;;7.07;6.37;;;;;;;17.18;77.60;98954.25;4107261;28;20665;-83
2022/07/17 00:41:02;;;;;;;7.23;6.53;;;;;;;17.17;77.21;98947.31;4118021;28;21173;-83
2022/07/17 00:43:05;;;;;;;6.77;6.17;;;;;;;17.14;78.16;98955.50;4107146;28;20648;-84
2022/07/17 00:45:10;;;;;;;7.33;5.90;;;;;;;17.09;77.45;98955.88;4105647;28;21606;-83
2022/07/17 00:47:14;;;;;;;7.13;6.20;;;;;;;17.05;76.01;98953.59;4123775;28;20673;-83
2022/07/17 00:49:17;;;;;;;6.83;5.97;;;;;;;17.02;77.09;98951.19;4107300;28;21083;-83
2022/07/17 00:51:20;;;;;;;7.53;6.70;;;;;;;16.98;76.50;98949.75;4125310;28;20760;-83
2022/07/17 00:53:24;;;;;;;6.40;5.73;;;;;;;16.96;77.66;98956.09;4123218;28;20671;-83
2022/07/17 00:55:30;;;;;;;7.27;6.57;;;;;;;16.95;78.34;98952.63;4112012;28;21077;-83
2022/07/17 00:57:51;;;;;;;6.23;5.63;;;;;;;16.96;77.73;98953.47;4088544;29;20663;-83
2022/07/17 00:59:54;;;;;;;6.57;5.97;;;;;;;16.95;77.84;98947.38;4120507;28;20663;-83
2022/07/17 01:01:57;;;;;;;9.87;6.20;;;;;;;16.95;77.62;98954.44;4107112;28;20653;-83
2022/07/17 01:04:01;;;;;;;7.20;6.50;;;;;;;16.94;76.80;98955.41;4107647;28;20664;-83
2022/07/17 01:06:06;;;;;;;6.90;6.27;;;;;;;16.94;77.85;98950.13;4118550;28;20668;-83
2022/07/17 01:08:09;;;;;;;6.47;5.70;;;;;;;16.91;77.33;98956.47;4122466;28;20700;-83
2022/07/17 01:10:13;;;;;;;7.40;5.83;;;;;;;16.86;76.98;98957.81;4109054;28;20653;-83
2022/07/17 01:12:16;;;;;;;6.70;5.90;;;;;;;16.84;77.99;98957.94;4109992;28;20661;-83
2022/07/17 01:14:23;;;;;;;7.30;6.50;;;;;;;16.81;77.16;98958.19;4118858;28;20650;-83
2022/07/17 01:16:27;;;;;;;7.17;6.40;;;;;;;16.78;77.90;98954.94;4109516;28;20662;-83
2022/07/17 01:18:30;;;;;;;6.57;5.97;;;;;;;16.75;76.40;98950.75;4123591;28;20686;-83
2022/07/17 01:20:33;;;;;;;8.37;7.57;;;;;;;16.65;78.05;98952.44;4121036;28;20772;-83
2022/07/17 01:22:42;;;;;;;7.30;6.47;;;;;;;16.57;78.46;98951.38;4108691;28;20658;-83
2022/07/17 01:24:45;;;;;;;8.53;6.60;;;;;;;16.52;77.07;98953.50;4128642;28;20739;-83
2022/07/17 01:26:49;;;;;;;7.23;6.07;;;;;;;16.43;76.13;98958.66;4130173;28;20695;-83
2022/07/17 01:28:52;;;;;;;7.50;6.70;;;;;;;16.40;77.74;98965.00;4126032;28;20664;-83
2022/07/17 01:30:55;;;;;;;7.20;6.37;;;;;;;16.38;77.73;98966.09;4112917;28;20664;-83
2022/07/17 01:32:59;;;;;;;7.00;6.30;;;;;;;16.37;78.15;98969.69;4112267;28;20653;-83
2022/07/17 01:35:02;;;;;;;7.57;6.60;;;;;;;16.38;77.50;98972.19;4113539;28;20956;-83
2022/07/17 01:37:05;;;;;;;6.77;6.17;;;;;;;16.37;78.89;98973.16;4130017;28;20650;-83
2022/07/17 01:39:09;;;;;;;7.27;6.57;;;;;;;16.34;78.41;98975.19;4111245;28;20645;-83
2022/07/17 01:41:13;;;;;;;6.70;6.10;;;;;;;16.31;78.94;98964.88;4125355;28;21246;-83
2022/07/17 01:43:16;;;;;;;6.73;6.03;;;;;;;16.24;77.62;98959.25;4115039;28;20652;-83
2022/07/17 01:45:20;;;;;;;7.70;6.60;;;;;;;16.23;77.85;98967.28;4123813;28;20662;-83
2022/07/17 01:47:24;;;;;;;7.23;6.53;;;;;;;16.24;79.44;98974.22;4124779;28;20659;-83
2022/07/17 01:49:27;;;;;;;7.10;6.40;;;;;;;16.21;78.56;98963.91;4129893;28;20747;-83
2022/07/17 01:51:30;;;;;;;7.30;6.30;;;;;;;16.13;78.97;98963.63;4128011;28;20651;-83
2022/07/17 01:53:34;;;;;;;6.70;6.20;;;;;;;16.09;78.38;98962.22;4125060;28;20653;-83
2022/07/17 01:55:39;;;;;;;8.10;7.30;;;;;;;16.08;78.35;98968.41;4129847;28;20661;-83
2022/07/17 01:57:42;;;;;;;7.40;6.60;;;;;;;16.03;79.77;98965.31;4113008;28;21056;-83
2022/07/17 01:59:46;;;;;;;7.40;6.70;;;;;;;16.03;80.16;98970.56;4114799;28;20652;-83
2022/07/17 02:01:49;;;;;;;9.63;6.77;;;;;;;16.01;79.08;98958.47;4110039;28;21279;-83
2022/07/17 02:03:52;;;;;;;7.93;7.13;;;;;;;15.99;79.86;98966.50;4111976;28;20656;-83
2022/07/17 02:05:55;;;;;;;7.47;6.70;;;;;;;15.95;78.73;98962.44;4109978;28;20657;-83
2022/07/17 02:07:58;;;;;;;7.23;6.53;;;;;;;15.92;80.15;98957.41;4112452;28;20649;-83
2022/07/17 02:10:02;;;;;;;7.60;6.80;;;;;;;15.87;80.01;98958.69;4110106;28;20755;-83
2022/07/17 02:12:07;;;;;;;7.57;6.83;;;;;;;15.84;79.79;98959.75;4109525;28;20655;-83
2022/07/17 02:14:10;;;;;;;7.37;6.67;;;;;;;15.86;78.97;98957.00;4108853;28;20712;-83
2022/07/17 02:16:13;;;;;;;7.93;6.90;;;;;;;15.83;79.33;98954.59;4123536;28;20691;-83
2022/07/17 02:18:17;;;;;;;7.57;6.90;;;;;;;15.81;80.86;98948.63;4109297;28;20660;-83
2022/07/17 02:20:20;;;;;;;7.30;6.60;;;;;;;15.76;80.33;98956.03;4124209;28;20703;-83
2022/07/17 02:22:23;;;;;;;8.50;7.17;;;;;;;15.72;78.83;98955.41;4110750;28;20761;-83
2022/07/17 02:24:26;;;;;;;8.20;6.23;;;;;;;15.72;80.28;98951.94;4123210;28;20650;-83
2022/07/17 02:26:29;;;;;;;7.93;7.13;;;;;;;15.66;80.41;98947.97;4123233;28;21070;-83
2022/07/17 02:28:34;;;;;;;7.50;6.80;;;;;;;15.64;80.55;98949.88;4110878;28;20755;-83
2022/07/17 02:30:37;;;;;;;7.90;7.10;;;;;;;15.61;81.52;98946.66;4127397;28;21227;-83
2022/07/17 02:32:41;;;;;;;7.30;6.60;;;;;;;15.56;80.93;98943.53;4107776;28;20640;-83
2022/07/17 02:34:44;;;;;;;7.10;6.47;;;;;;;15.57;79.73;98940.81;4109884;28;21015;-83
2022/07/17 02:36:47;;;;;;;7.77;6.63;;;;;;;15.57;81.53;98946.06;4112256;28;20653;-83
2022/07/17 02:38:51;;;;;;;8.03;6.57;;;;;;;15.58;81.55;98945.09;4109123;28;20664;-83
2022/07/17 02:40:55;;;;;;;8.53;7.00;;;;;;;15.60;81.28;98947.59;4108048;28;20659;-83
2022/07/17 02:42:58;;;;;;;7.77;7.07;;;;;;;15.59;81.29;98946.78;4124268;28;20725;-83
2022/07/17 02:45:02;;;;;;;7.57;6.87;;;;;;;15.54;81.38;98945.44;4124210;28;21078;-83
2022/07/17 02:47:06;;;;;;;9.67;6.40;;;;;;;15.50;80.21;98941.38;4125208;28;20649;-83
2022/07/17 02:49:09;;;;;;;7.73;6.27;;;;;;;15.46;82.17;98939.09;4120648;28;20650;-83
2022/07/17 02:51:13;;;;;;;7.40;6.70;;;;;;;15.43;80.27;98932.25;4106314;28;20669;-83
2022/07/17 02:53:16;;;;;;;8.43;6.70;;;;;;;15.43;81.03;98941.94;4125795;28;20649;-83
2022/07/17 02:55:19;;;;;;;7.90;7.10;;;;;;;15.41;82.37;98930.69;4126802;28;20728;-83
2022/07/17 02:57:22;;;;;;;7.53;6.80;;;;;;;15.42;82.45;98935.81;4086241;28;1093397;-83
2022/07/17 02:59:25;;;;;;;10.37;6.33;;;;;;;15.40;80.59;98939.53;4105034;28;20257;-83
2022/07/17 03:01:29;;;;;;;7.40;6.70;;;;;;;15.37;81.86;98935.34;4110672;28;20650;-83
2022/07/17 03:03:33;;;;;;;7.67;6.97;;;;;;;15.32;81.26;98928.72;4111195;28;20671;-83
2022/07/17 03:05:37;;;;;;;7.13;6.37;;;;;;;15.28;81.92;98936.00;4128842;28;20642;-83
2022/07/17 03:07:40;;;;;;;7.33;6.60;;;;;;;15.29;81.56;98926.31;4125412;28;20675;-83
2022/07/17 03:09:43;;;;;;;7.73;6.93;;;;;;;15.28;81.53;98928.13;4121852;28;20664;-83
2022/07/17 03:11:46;;;;;;;7.70;7.00;;;;;;;15.28;81.66;98932.56;4111304;28;20662;-83
2022/07/17 03:13:49;;;;;;;8.20;7.40;;;;;;;15.28;82.42;98927.28;4110355;28;20773;-83
2022/07/17 03:15:52;;;;;;;7.77;7.07;;;;;;;15.24;82.20;98929.28;4123981;28;20664;-83
2022/07/17 03:17:57;;;;;;;7.20;6.60;;;;;;;15.21;82.10;98936.56;4105165;28;21254;-83
2022/07/17 03:20:00;;;;;;;7.53;6.73;;;;;;;15.18;81.95;98931.53;4126343;28;20713;-83
2022/07/17 03:22:03;;;;;;;7.20;6.50;;;;;;;15.19;82.16;98939.31;4108208;28;21162;-83
2022/07/17 03:24:07;;;;;;;7.93;7.13;;;;;;;15.19;81.11;98935.84;4123465;28;20638;-83
2022/07/17 03:26:11;;;;;;;7.70;6.70;;;;;;;15.20;80.85;98934.91;4108007;28;20659;-83
2022/07/17 03:28:14;;;;;;;7.67;6.67;;;;;;;15.19;80.60;98936.69;4111090;28;21230;-83
2022/07/17 03:30:17;;;;;;;7.10;6.47;;;;;;;15.20;81.24;98950.69;4123492;28;21285;-83
2022/07/17 03:32:20;;;;;;;7.90;7.10;;;;;;;15.18;81.22;98948.16;4109131;28;20729;-83
2022/07/17 03:34:24;;;;;;;7.33;6.63;;;;;;;15.17;82.29;98945.66;4110592;28;20657;-83
2022/07/17 03:36:27;;;;;;;7.70;7.00;;;;;;;15.15;82.57;98945.72;4108948;28;20671;-83
2022/07/17 03:38:30;;;;;;;7.40;6.80;;;;;;;15.11;81.47;98948.69;4127246;28;20718;-83
2022/07/17 03:40:34;;;;;;;8.20;7.40;;;;;;;15.09;81.53;98953.19;4094700;28;20664;-83
2022/07/17 03:42:37;;;;;;;8.03;7.33;;;;;;;15.07;82.18;98947.22;4124464;28;20733;-83
2022/07/17 03:44:40;;;;;;;7.33;6.63;;;;;;;15.05;81.45;98953.53;4109292;28;20670;-83
2022/07/17 03:46:43;;;;;;;8.17;7.40;;;;;;;15.04;82.37;98957.13;4108748;28;20728;-83
2022/07/17 03:48:46;;;;;;;7.70;7.10;;;;;;;15.01;82.37;98952.91;4126921;28;20659;-83
2022/07/17 03:50:51;;;;;;;7.60;6.90;;;;;;;14.99;82.50;98954.81;4109401;28;20659;-83
2022/07/17 03:52:54;;;;;;;7.90;7.20;;;;;;;14.95;81.88;98949.91;4109833;28;21226;-83
2022/07/17 03:54:57;;;;;;;7.50;6.80;;;;;;;14.92;83.02;98950.94;4109926;28;20675;-84
2022/07/17 03:57:00;;;;;;;7.80;7.10;;;;;;;14.92;82.27;98948.31;4109326;28;20670;-83
2022/07/17 03:59:03;;;;;;;7.73;7.03;;;;;;;14.92;82.09;98958.84;4110512;28;20699;-84
2022/07/17 04:01:08;;;;;;;8.20;7.07;;;;;;;14.90;82.18;98958.13;4110056;28;20709;-83
2022/07/17 04:03:11;;;;;;;8.00;7.27;;;;;;;14.90;82.46;98958.13;4108489;28;20688;-83
2022/07/17 04:05:14;;;;;;;8.00;7.20;;;;;;;14.87;82.76;98954.84;4124113;28;20747;-83
2022/07/17 04:07:28;;;;;;;7.97;7.10;;;;;;;14.86;82.48;98954.00;4126077;28;22800;-84
2022/07/17 04:09:31;;;;;;;7.70;6.90;;;;;;;14.90;82.35;98959.88;4109121;28;21201;-83
2022/07/17 04:11:34;;;;;;;8.20;7.50;;;;;;;14.93;82.38;98957.91;4126033;28;20735;-83
2022/07/17 04:13:37;;;;;;;7.97;7.20;;;;;;;14.98;82.05;98957.56;4110114;28;21272;-83
2022/07/17 04:15:56;;;;;;;8.47;7.67;;;;;;;15.01;82.62;98960.81;4126428;28;20653;-83
2022/07/17 04:17:59;;;;;;;8.30;7.50;;;;;;;15.04;83.04;98963.22;4126615;28;21225;-83
2022/07/17 04:20:03;;;;;;;9.03;7.43;;;;;;;15.07;82.07;98955.09;4106456;28;21096;-83
2022/07/17 04:22:06;;;;;;;8.60;7.70;;;;;;;15.10;81.97;98958.34;4125010;28;20740;-83
2022/07/17 04:24:10;;;;;;;8.20;7.47;;;;;;;15.15;82.00;98966.75;4109685;28;20643;-83
2022/07/17 04:26:13;;;;;;;9.00;7.67;;;;;;;15.16;81.40;98962.31;4108284;28;20724;-83
2022/07/17 04:28:17;;;;;;;8.50;7.77;;;;;;;15.19;82.38;98970.03;4106222;28;20656;-83
2022/07/17 04:30:20;;;;;;;8.03;7.33;;;;;;;15.25;82.01;98973.03;4105532;28;21093;-83
2022/07/17 04:32:23;;;;;;;8.30;7.60;;;;;;;15.28;82.00;98970.19;4109046;28;20674;-83
2022/07/17 04:34:27;;;;;;;7.83;7.13;;;;;;;15.31;81.00;98974.38;4107027;28;21253;-83
2022/07/17 04:36:30;;;;;;;8.00;7.20;;;;;;;15.34;80.24;98974.16;4107767;28;20980;-83
2022/07/17 04:38:33;;;;;;;8.30;7.53;;;;;;;15.34;80.46;98969.72;4110585;28;20640;-83
2022/07/17 04:40:38;;;;;;;9.77;7.10;;;;;;;15.40;80.82;98966.66;4127887;28;20661;-82
2022/07/17 04:42:41;;;;;;;7.47;6.77;;;;;;;15.46;80.15;98973.25;4122776;28;20650;-83
2022/07/17 04:44:45;;;;;;;7.93;7.27;;;;;;;15.46;79.93;98978.53;4108037;28;20658;-83
2022/07/17 04:46:48;;;;;;;8.37;7.57;;;;;;;15.47;79.29;98974.91;4106705;28;20711;-83
2022/07/17 04:48:51;;;;;;;15.40;7.60;;;;;;;15.51;80.51;98981.63;4093911;29;20664;-83
2022/07/17 04:50:54;;;;;;;7.63;6.93;;;;;;;15.55;80.28;98983.94;4110342;28;20651;-83
2022/07/17 04:53:00;;;;;;;8.03;7.30;;;;;;;15.57;78.27;98982.88;4123775;28;20663;-83
2022/07/17 04:55:04;;;;;;;7.97;7.17;;;;;;;15.61;80.27;98984.31;4110911;28;20651;-83
2022/07/17 04:57:08;;;;;;;10.33;8.00;;;;;;;15.62;78.46;98983.38;4126235;28;20667;-83
2022/07/17 04:59:11;;;;;;;8.57;7.67;;;;;;;15.69;79.32;98979.31;4105700;28;21077;-83
2022/07/17 05:01:14;;;;;;;8.53;7.60;;;;;;;15.78;78.60;98986.50;4105019;28;20656;-83
2022/07/17 05:03:17;;;;;;;7.93;7.13;;;;;;;15.79;77.77;98987.38;4107944;28;20670;-83
2022/07/17 05:05:21;;;;;;;9.40;8.13;;;;;;;15.84;79.57;98986.06;4107213;28;20670;-83
2022/07/17 05:07:24;;;;;;;9.00;8.00;;;;;;;15.84;78.69;98986.06;4126107;28;20661;-83
2022/07/17 05:09:27;;;;;;;8.87;7.97;;;;;;;15.91;78.00;98989.91;4115949;28;20664;-83
2022/07/17 05:11:30;;;;;;;8.03;7.33;;;;;;;15.95;79.79;98988.75;4107362;28;20657;-83
2022/07/17 05:13:35;;;;;;;8.50;7.70;;;;;;;16.03;78.19;98994.25;4123511;28;20684;-83
2022/07/17 05:15:38;;;;;;;8.40;7.70;;;;;;;16.05;79.10;98989.72;4105457;28;20683;-83
2022/07/17 05:17:42;;;;;;;8.43;7.40;;;;;;;16.11;78.20;98989.25;4105502;28;21125;-83
2022/07/17 05:19:45;;;;;;;8.20;7.40;;;;;;;16.14;78.60;98989.00;4111025;28;20729;-83
2022/07/17 05:21:48;;;;;;;8.10;7.40;;;;;;;16.17;78.76;98986.97;4123293;28;20658;-83
2022/07/17 05:23:52;;;;;;;8.53;7.73;;;;;;;16.24;78.26;98988.22;4107479;28;20706;-83
2022/07/17 05:25:55;;;;;;;9.23;7.40;;;;;;;16.34;79.36;98988.34;4113148;28;20656;-83
2022/07/17 05:27:58;;;;;;;8.53;7.67;;;;;;;16.45;78.34;98991.84;4109389;28;20670;-83
2022/07/17 05:30:03;;;;;;;11.77;7.63;;;;;;;16.57;78.18;98990.91;4121308;28;20658;-83
2022/07/17 05:32:07;;;;;;;7.97;6.70;;;;;;;16.67;77.44;98983.94;4119669;28;20667;-83
2022/07/17 05:34:10;;;;;;;9.17;6.83;;;;;;;16.80;77.20;98984.66;4119155;28;21290;-83
2022/07/17 05:36:13;;;;;;;8.23;7.00;;;;;;;16.93;76.98;98986.19;4123623;28;20691;-83
2022/07/17 05:38:16;;;;;;;8.00;7.20;;;;;;;17.06;76.84;98990.38;4123639;28;20705;-83
2022/07/17 05:40:19;;;;;;;8.00;7.27;;;;;;;17.16;76.15;98990.47;4124935;28;20655;-83
2022/07/17 05:42:22;;;;;;;7.23;6.60;;;;;;;17.33;77.80;98995.25;4121448;28;20664;-83
2022/07/17 05:44:25;;;;;;;9.00;6.60;;;;;;;17.47;76.29;98990.53;4110820;28;22138;-83
2022/07/17 05:46:29;;;;;;;7.23;6.63;;;;;;;17.65;75.83;99000.44;4107324;28;20656;-83
2022/07/17 05:48:32;;;;;;;7.53;6.73;;;;;;;17.88;77.09;98994.06;4107998;28;20655;-83
2022/07/17 05:50:36;;;;;;;7.57;6.87;;;;;;;18.20;76.90;98992.25;4123568;28;20694;-83
2022/07/17 05:52:39;;;;;;;7.10;6.40;;;;;;;18.59;75.91;99001.09;4125906;28;20640;-83
2022/07/17 05:54:42;;;;;;;7.27;6.57;;;;;;;18.99;74.54;99002.78;4117133;28;20629;-83
2022/07/17 05:56:45;;;;;;;6.70;6.00;;;;;;;19.38;73.82;99010.72;4122929;28;20711;-83
2022/07/17 05:58:48;;;;;;;7.37;6.30;;;;;;;19.77;70.89;99009.78;4123471;28;21346;-83
2022/07/17 06:00:51;;;;;;;6.90;6.30;;;;;;;20.12;69.83;99012.75;4125185;28;20745;-83
2022/07/17 06:02:57;;;;;;;6.73;6.13;;;;;;;20.49;70.64;99014.47;4122370;28;21228;-84
2022/07/17 06:05:00;;;;;;;6.53;5.93;;;;;;;20.86;68.63;99016.19;4106954;28;20691;-84
2022/07/17 06:07:03;;;;;;;6.50;6.00;;;;;;;21.18;67.58;99022.75;4108215;28;20758;-84
2022/07/17 06:09:06;;;;;;;7.00;6.30;;;;;;;21.45;66.48;99030.69;4110900;28;20650;-84
2022/07/17 06:11:09;;;;;;;7.00;6.30;;;;;;;21.70;66.02;99030.84;4125744;28;20673;-84
2022/07/17 06:13:12;;;;;;;6.80;6.10;;;;;;;21.95;65.54;99028.28;4123339;28;20655;-84
2022/07/17 06:15:16;;;;;;;6.60;5.73;;;;;;;22.16;64.20;99033.28;4118711;28;20664;-83
2022/07/17 06:17:22;;;;;;;6.57;5.97;;;;;;;22.30;63.55;99029.09;4111932;28;20655;-84
2022/07/17 06:19:26;;;;;;;6.10;5.50;;;;;;;22.53;62.80;99030.28;4130520;28;21260;-84
2022/07/17 06:21:30;;;;;;;5.80;5.20;;;;;;;22.85;63.61;99038.47;4113161;28;21203;-84
2022/07/17 06:23:33;;;;;;;7.53;5.77;;;;;;;23.19;62.37;99037.50;4128656;28;21247;-84
2022/07/17 06:25:36;;;;;;;5.73;5.10;;;;;;;23.48;61.09;99038.78;4098733;28;20649;-83
2022/07/17 06:27:40;;;;;;;5.60;5.10;;;;;;;23.73;61.44;99043.22;4110453;28;20662;-84
2022/07/17 06:29:43;;;;;;;5.70;5.20;;;;;;;24.01;60.21;99047.25;4108611;28;20647;-83
2022/07/17 06:31:56;;;;;;;5.67;5.10;;;;;;;24.22;58.49;99046.63;4108912;28;20657;-84
2022/07/17 06:33:59;;;;;;;5.53;5.03;;;;;;;24.37;58.88;99058.34;4128490;28;20656;-84
2022/07/17 06:36:04;;;;;;;5.60;5.00;;;;;;;24.48;60.68;99057.19;4110928;28;21253;-84
2022/07/17 06:38:10;;;;;;;5.57;5.00;;;;;;;24.61;57.42;99049.47;4109156;28;20849;-84
2022/07/17 06:40:13;;;;;;;5.13;4.63;;;;;;;24.72;56.30;99044.63;4093630;28;20666;-84
2022/07/17 06:42:16;;;;;;;5.43;4.43;;;;;;;25.00;57.46;99049.44;4124660;28;20646;-85
2022/07/17 06:44:20;;;;;;;6.90;4.57;;;;;;;25.20;57.30;99043.53;4107811;28;20659;-84
2022/07/17 06:46:23;;;;;;;4.70;4.20;;;;;;;25.43;57.04;99051.63;4124525;28;20649;-84
2022/07/17 06:48:26;;;;;;;5.30;4.10;;;;;;;25.70;56.73;99054.69;4109963;28;20648;-84
2022/07/17 06:50:29;;;;;;;4.70;4.30;;;;;;;25.83;55.52;99050.44;4125190;28;21301;-84
2022/07/17 06:52:34;;;;;;;4.30;3.90;;;;;;;25.87;53.30;99042.91;4126170;28;20634;-84
2022/07/17 06:54:37;;;;;;;5.00;4.50;;;;;;;25.94;54.50;99049.22;4125009;28;20664;-84
2022/07/17 06:56:40;;;;;;;7.20;4.47;;;;;;;26.08;53.58;99051.13;4123831;28;20682;-84
2022/07/17 06:58:43;;;;;;;4.87;4.37;;;;;;;26.31;54.09;99048.31;4109251;28;20668;-84
2022/07/17 07:00:46;;;;;;;4.63;4.13;;;;;;;26.53;53.73;99044.75;4111649;28;20653;-84
2022/07/17 07:02:49;;;;;;;5.07;4.57;;;;;;;26.59;52.13;99042.16;4108086;28;20650;-84
2022/07/17 07:04:52;;;;;;;4.60;4.20;;;;;;;26.63;52.18;99046.16;4106008;28;20654;-84
2022/07/17 07:06:55;;;;;;;6.00;4.30;;;;;;;26.87;54.61;99055.81;4121165;28;21097;-84
2022/07/17 07:09:00;;;;;;;6.03;4.40;;;;;;;26.94;52.03;99044.19;4129567;28;20694;-84
2022/07/17 07:11:03;;;;;;;4.27;3.87;;;;;;;26.97;51.26;99051.03;4103673;28;20651;-84
2022/07/17 07:13:06;;;;;;;6.07;4.17;;;;;;;26.98;52.02;99055.41;4109788;28;21233;-84
2022/07/17 07:15:10;;;;;;;3.80;3.50;;;;;;;27.15;51.18;99050.50;4123824;28;21541;-84
2022/07/17 07:17:15;;;;;;;4.40;3.70;;;;;;;27.12;50.12;99045.53;4128399;28;20658;-84
2022/07/17 07:19:18;;;;;;;6.43;3.73;;;;;;;27.22;49.78;99053.28;4103782;28;20655;-84
2022/07/17 07:21:22;;;;;;;4.23;3.83;;;;;;;27.22;50.18;99046.06;4124735;28;20793;-84
2022/07/17 07:23:26;;;;;;;4.43;4.00;;;;;;;27.33;50.01;99048.25;4109797;28;20866;-84
2022/07/17 07:25:30;;;;;;;6.90;3.73;;;;;;;27.42;49.87;99049.84;4108055;28;21053;-84
2022/07/17 07:27:34;;;;;;;3.90;3.50;;;;;;;27.63;50.19;99057.97;4109576;28;20657;-84
2022/07/17 07:29:37;;;;;;;4.13;3.73;;;;;;;27.67;49.52;99049.38;4123264;28;20714;-84
2022/07/17 07:31:40;;;;;;;4.23;3.63;;;;;;;27.70;49.86;99050.84;4123345;28;20779;-84
2022/07/17 07:33:44;;;;;;;4.17;3.77;;;;;;;27.92;52.11;99047.19;4115126;28;20698;-84
2022/07/17 07:35:47;;;;;;;4.83;3.37;;;;;;;28.19;50.09;99050.81;4106555;28;20640;-84
2022/07/17 07:37:50;;;;;;;4.40;4.00;;;;;;;28.25;49.21;99051.91;4108606;28;20938;-84
2022/07/17 07:39:53;;;;;;;6.53;4.00;;;;;;;28.43;50.55;99054.97;4107184;28;20753;-84
2022/07/17 07:41:58;;;;;;;4.10;3.27;;;;;;;28.59;50.17;99047.47;4123701;28;20678;-84
2022/07/17 07:44:01;;;;;;;4.23;3.40;;;;;;;28.64;48.10;99051.25;4109068;28;20651;-84
2022/07/17 07:46:05;;;;;;;4.73;3.80;;;;;;;28.72;48.33;99053.81;4122992;28;20801;-85
2022/07/17 07:48:08;;;;;;;5.13;3.50;;;;;;;28.72;48.17;99053.00;4124045;28;20648;-85
2022/07/17 07:50:12;;;;;;;3.57;3.27;;;;;;;28.76;51.39;99048.88;4126694;28;20667;-84
2022/07/17 07:52:15;;;;;;;3.77;3.47;;;;;;;29.00;48.23;99057.31;4123908;28;20663;-84
2022/07/17 07:54:18;;;;;;;4.43;4.03;;;;;;;29.00;50.34;99051.94;4123696;28;21026;-84
2022/07/17 07:56:21;;;;;;;4.17;3.50;;;;;;;29.08;48.49;99058.00;4126995;28;20672;-84
2022/07/17 07:58:26;;;;;;;5.13;3.70;;;;;;;29.22;47.61;99054.38;4121861;28;20640;-84
2022/07/17 08:00:29;;;;;;;4.60;3.53;;;;;;;29.32;48.08;99052.19;4123261;28;20658;-84
2022/07/17 08:02:32;;;;;;;3.57;3.00;;;;;;;29.40;46.92;99052.03;4109994;28;20727;-84
2022/07/17 08:04:35;;;;;;;3.60;3.23;;;;;;;29.49;48.03;99058.91;4123003;28;20714;-85
2022/07/17 08:06:39;;;;;;;3.87;2.77;;;;;;;29.69;47.44;99055.25;4118141;28;20755;-84
2022/07/17 08:08:45;;;;;;;3.27;2.57;;;;;;;29.80;45.37;99056.56;4121201;28;21235;-87
2022/07/17 08:10:48;;;;;;;3.27;2.97;;;;;;;29.94;45.74;99057.25;4123542;28;21024;-90
2022/07/17 08:12:52;;;;;;;4.17;3.10;;;;;;;29.96;45.10;99057.03;4119268;28;20658;-86
2022/07/17 08:14:56;;;;;;;4.60;3.57;;;;;;;29.84;46.65;99052.47;4123134;28;20636;-85
2022/07/17 08:17:00;;;;;;;3.70;3.13;;;;;;;30.03;46.24;99050.66;4110596;28;20655;-85
2022/07/17 08:19:03;;;;;;;3.80;3.50;;;;;;;30.17;46.56;99055.03;4128471;28;20654;-86
2022/07/17 08:21:06;;;;;;;3.80;3.27;;;;;;;30.23;45.74;99048.81;4127601;28;20657;-85
2022/07/17 08:23:09;;;;;;;5.23;3.40;;;;;;;30.24;45.89;99049.66;4123222;28;20667;-86
2022/07/17 08:25:13;;;;;;;5.03;3.50;;;;;;;30.29;45.42;99049.88;4113589;28;20688;-86
2022/07/17 08:27:17;;;;;;;3.50;3.20;;;;;;;30.33;48.84;99046.56;4110365;28;20676;-85
2022/07/17 08:29:21;;;;;;;3.97;3.67;;;;;;;30.38;47.33;99048.69;4123330;28;20664;-85
2022/07/17 08:31:46;;;;;;;5.07;3.50;;;;;;;30.40;45.36;99050.16;4108216;28;20656;-86
2022/07/17 08:33:57;;;;;;;3.50;3.20;;;;;;;30.45;46.39;99042.28;4125726;28;20659;-85
2022/07/17 08:36:00;;;;;;;3.90;3.43;;;;;;;30.43;44.99;99044.31;4127281;28;20686;-86
2022/07/17 08:38:04;;;;;;;3.30;3.00;;;;;;;30.52;46.31;99048.47;4124914;28;20687;-86
2022/07/17 08:40:08;;;;;;;3.93;3.53;;;;;;;30.67;46.58;99036.47;4124716;28;21160;-86
2022/07/17 08:42:15;;;;;;;4.00;3.40;;;;;;;30.80;46.57;99046.41;4107752;28;21387;-85
2022/07/17 08:44:18;;;;;;;4.17;3.70;;;;;;;30.87;44.59;99047.22;4126472;28;20731;-86
2022/07/17 08:46:25;;;;;;;4.10;3.33;;;;;;;30.71;43.52;99042.28;4106678;28;20717;-85
2022/07/17 08:48:33;;;;;;;3.50;3.17;;;;;;;30.72;46.08;99041.25;4123057;28;20661;-85
2022/07/17 08:50:36;;;;;;;3.87;3.50;;;;;;;30.62;44.07;99038.13;4106629;28;20659;-85
2022/07/17 08:52:40;;;;;;;3.67;3.07;;;;;;;30.65;44.48;99037.72;4125104;28;21237;-86
2022/07/17 08:54:44;;;;;;;3.57;3.00;;;;;;;30.73;44.21;99042.88;4124729;28;20664;-86
2022/07/17 08:56:47;;;;;;;3.60;3.10;;;;;;;30.80;43.65;99035.63;4110367;28;20680;-87
2022/07/17 08:58:50;;;;;;;3.83;3.43;;;;;;;30.87;44.75;99040.00;4095662;28;20651;-87
2022/07/17 09:00:53;;;;;;;5.10;3.10;;;;;;;30.98;43.54;99044.75;4127443;28;21338;-86
2022/07/17 09:02:58;;;;;;;3.07;2.77;;;;;;;31.03;43.02;99043.09;4111534;28;20689;-86
2022/07/17 09:05:03;;;;;;;3.17;2.93;;;;;;;31.01;45.20;99034.38;4108049;28;20700;-86
2022/07/17 09:07:06;;;;;;;4.67;3.13;;;;;;;31.01;43.26;99033.56;4108001;28;20704;-86
2022/07/17 09:09:11;;;;;;;3.90;3.60;;;;;;;30.83;43.37;99033.34;4125626;28;20673;-87
2022/07/17 09:11:14;;;;;;;3.63;3.30;;;;;;;30.93;45.10;99040.00;4123013;28;20661;-86
2022/07/17 09:13:20;;;;;;;3.23;2.93;;;;;;;31.03;44.28;99037.72;4111355;28;20799;-88
2022/07/17 09:15:24;;;;;;;3.87;3.43;;;;;;;31.09;43.56;99042.28;4111651;28;20788;-88
2022/07/17 09:17:28;;;;;;;4.07;3.47;;;;;;;30.90;42.71;99039.59;4112502;28;21271;-88
2022/07/17 09:19:32;;;;;;;3.10;2.80;;;;;;;31.00;41.97;99038.13;4112243;28;20658;-87
2022/07/17 09:21:37;;;;;;;3.23;2.93;;;;;;;31.03;41.94;99036.88;4110581;28;20664;-87
2022/07/17 09:23:58;;;;;;;4.20;3.40;;;;;;;31.05;40.47;99040.19;4125735;28;20665;-87
2022/07/17 09:26:02;;;;;;;3.30;3.00;;;;;;;30.97;42.07;99035.00;4108922;28;20690;-87
2022/07/17 09:28:06;;;;;;;2.93;2.73;;;;;;;31.05;42.25;99035.63;4110203;28;20702;-87
2022/07/17 09:30:12;;;;;;;5.20;3.50;;;;;;;31.00;43.56;99032.75;4113241;28;20671;-87
2022/07/17 09:32:17;;;;;;;3.20;2.90;;;;;;;31.06;41.26;99034.59;4126143;28;20798;-87
2022/07/17 09:34:20;;;;;;;3.40;3.10;;;;;;;30.94;42.92;99025.50;4112502;28;20686;-87
2022/07/17 09:36:24;;;;;;;3.60;3.20;;;;;;;30.92;43.39;99024.84;4109680;28;20655;-87
2022/07/17 09:38:31;;;;;;;3.73;3.33;;;;;;;30.82;43.84;99028.97;4128492;28;20724;-87
2022/07/17 09:42:56;;;;;;;3.53;3.23;;;;;;;30.88;43.50;99025.47;4106931;28;20651;-87
2022/07/17 09:45:01;;;;;;;3.50;3.10;;;;;;;31.04;43.92;99019.66;4112320;28;20651;-87
2022/07/17 09:47:04;;;;;;;3.50;2.67;;;;;;;30.96;42.11;99012.63;4116346;28;20774;-87